Ride Results

Victorian State Championship (10-06-2016)
Ride distance: 81.0 km

Outcomes - Victorian State Championship (10-06-2016)
Division No. of Entries Retired / DNE Completed Withdrawn Ineligible V/O Percentage Completed
HW 5 - 4 - - 1 80.00%
MW 17 - 14 - - 3 82.35%
LW 15 - 12 2 - 1 80.00%
JN 3 - 2 - - 1 66.67%
Totals 40 - 32 2 - 6 80.00%
Results - Victorian State Championship (10-06-2016)
No. Rider Horse Place Time Leg Speeds Total
Km/Hr
H/R bpm
Heavyweight
135 Tamara Atkinson Mathoura McKinlay 1 (BC) 5:24:00 15.8, 14.2 15.00 48, 46, 43 (Avg:44)
76 Russell Robinson Budding Dragon 2 6:48:00 13.4, 10.6 11.91 43, 44, 52 (Avg:48)
107 Denis Sugars DVS Suni Bronson 3 7:13:00 12.9, 9.8 11.22 46, 42, 56 (Avg:49)
115 Rod Mills Musical Gully Zanadu 4 9:19:00 11.0, 7.1 8.69 33, 40, 42 (Avg:41)
66 Digger Leehane Tarara Malone Lame L1 (Rep) 0:00:00 17.0 - 29, 41, 37 (Avg:39)
Middleweight
42 Hans Peuker Marybank Celia 1 5:19:00 17.0, 13.7 15.24 26, 39, 49 (Avg:44)
126 Wendy Riha Bullio Gebreselassie 2 (BC) 5:20:00 15.1, 15.1 15.19 33, 43, 45 (Avg:44)
152 Naomi O'Shaughnessy Castlebar Party Girl 3 5:24:00 15.8, 14.2 15.00 31, 42, 44 (Avg:43)
286 Jason Rathbone Concherto FF 4 6:11:00 13.6, 12.5 13.10 38, 42, 53 (Avg:47)
23 Brittnee Smith Timbertop Golden Fantasy 5 6:42:00 13.3, 11.0 12.09 33, 39, 40 (Avg:39)
232 Jodie Luck Prince Charming FF 6 6:47:00 13.1, 10.9 11.94 34, 48, 48 (Avg:48)
181 Sharee Court Miss Ziggy 7 7:03:00 12.1, 10.9 11.49 34, 43, 57 (Avg:50)
89 Sheryl Herbert Just Shakira 7 7:03:00 12.1, 10.9 11.49 29, 42, 44 (Avg:43)
49 Jessica Remfry Music Maker 7 7:03:00 12.1, 10.9 11.49 35, 44, 57 (Avg:50)
173 Robyn Albers Tubbarubba Jay Jay 10 7:04:00 12.4, 10.5 11.46 29, 45, 46 (Avg:45)
293 Daniel Noble Roswick Ameera 10 7:04:00 11.1, 11.7 11.46 45, 45, 57 (Avg:51)
257 Tanya Beacham Creswick Magdaleenah 12 7:06:00 11.8, 10.9 11.41 28, 42, 47 (Avg:44)
305 Donna Freeburn Najaf Mazari 13 8:44:00 10.0, 8.5 9.27 33, 38, 45 (Avg:41)
6 Julie Woods Pyrenees Kaleb 14 9:19:00 11.0, 7.1 8.69 35, 46, 52 (Avg:49)
253 Kerri Hart Roxy Lame L2 0:00:00 13.8, 16.5 - 40, 50, 56 (Avg:53)
172 Michael Cadman Regal Samurai Lame L1 0:00:00 12.4 - 39, 46, 54 (Avg:50)
17 Sallyann Duke Ramigil Sapphyre Lame L1 0:00:00 15.1 - 33, 46 (Avg:46)
Lightweight
752 Jessica Saxon-Burns Rafeeq 1 6:05:00 13.4, 13.1 13.32 34, 40, 42 (Avg:41)
278 Gina Thompson Clovelly Park Barak 1 6:05:00 13.4, 13.1 13.32 40, 49, 46 (Avg:47)
745 Renee Henry Cadenza Supernatural 3 6:11:00 13.6, 12.5 13.10 28, 40, 47 (Avg:43)
291 Kerryn Agnew Performance Park Memphis Rain 4 (BC) 6:13:00 13.0, 13.0 13.03 31, 38, 45 (Avg:41)
3 Caley Rees El Sancaar Anseesah 5 6:42:00 13.3, 11.0 12.09 37, 44, 51 (Avg:47)
250 Kerry Alderton Madrigal Park Larbonetta 6 6:47:00 13.1, 10.9 11.94 35, 43, 45 (Avg:44)
747 Kerry Bail Eddann Omorose 7 7:03:00 12.2, 10.7 11.49 25, 41, 47 (Avg:44)
264 Sarah Doyle Valley Vista Karizma 8 7:13:00 12.9, 9.8 11.22 31, 37, 42 (Avg:39)
208 Janeen Smith Taylorsglen Oakswood 9 7:54:00 11.0, 9.5 10.25 37, 42, 47 (Avg:44)
754 Nicole Porter Rocky Point Fire Opal 10 7:55:00 11.0, 9.4 10.23 36, 43, 49 (Avg:46)
61 Lois Sharam Al Bahir 11 8:00:00 11.0, 9.3 10.13 28, 42, 50 (Avg:46)
114 Helen Spencer Imoan Party Girl 11 8:00:00 11.0, 9.3 10.13 31, 55, 39 (Avg:47)
749 Shannon McNamara Cadenza The Shadow Lame L2 0:00:00 11.0, 9.5 - 34, 52, 49 (Avg:50)
266 Harlee McCarthy Shardell Arrogon Withdrawn L1 0:00:00 - - 50, 45 (Avg:45)
229 Nathalie Thome Musk Valley Dragonfly Withdrawn P/R 0:00:00 - - 42
Junior
751 Mohammed Al-Tamimi Lauralyn Bayeta 1 (BC) 8:17:00 10.5, 9.0 9.78 35, 43, 56 (Avg:49)
746 Samantha Moore Ablue Moon In Orbit 2 9:27:00 9.7, 7.6 8.57 37, 46, 59 (Avg:52)
280 Thomas Reay Victoria Park Za-Avior Lame L1 (Rep) 0:00:00 11.1 - 47, 45, 48 (Avg:46)